sensor_id;sensor_type;location;lat;lon;timestamp;temperature;humidity
22379;DHT22;11357;49.990;7.370;2022-09-29T00:00:21;9.80;78.00
22379;DHT22;11357;49.990;7.370;2022-09-29T00:02:46;9.70;78.10
22379;DHT22;11357;49.990;7.370;2022-09-29T00:05:12;9.70;78.30
22379;DHT22;11357;49.990;7.370;2022-09-29T00:07:38;9.60;78.40
22379;DHT22;11357;49.990;7.370;2022-09-29T00:10:03;9.60;78.50
22379;DHT22;11357;49.990;7.370;2022-09-29T00:12:30;9.60;78.50
22379;DHT22;11357;49.990;7.370;2022-09-29T00:14:56;9.60;78.50
22379;DHT22;11357;49.990;7.370;2022-09-29T00:17:21;9.60;78.50
22379;DHT22;11357;49.990;7.370;2022-09-29T00:19:47;9.60;78.40
22379;DHT22;11357;49.990;7.370;2022-09-29T00:22:13;9.50;78.50
22379;DHT22;11357;49.990;7.370;2022-09-29T00:24:38;9.50;78.50
22379;DHT22;11357;49.990;7.370;2022-09-29T00:27:04;9.50;78.60
22379;DHT22;11357;49.990;7.370;2022-09-29T00:29:30;9.40;78.70
22379;DHT22;11357;49.990;7.370;2022-09-29T00:31:55;9.40;78.60
22379;DHT22;11357;49.990;7.370;2022-09-29T00:34:21;9.30;78.60
22379;DHT22;11357;49.990;7.370;2022-09-29T00:36:47;9.30;78.60
22379;DHT22;11357;49.990;7.370;2022-09-29T00:39:12;9.20;78.70
22379;DHT22;11357;49.990;7.370;2022-09-29T00:41:39;9.20;78.80
22379;DHT22;11357;49.990;7.370;2022-09-29T00:46:54;9.10;79.00
22379;DHT22;11357;49.990;7.370;2022-09-29T00:52:04;9.00;79.30
22379;DHT22;11357;49.990;7.370;2022-09-29T00:54:38;9.10;79.40
22379;DHT22;11357;49.990;7.370;2022-09-29T00:57:06;9.10;79.20
22379;DHT22;11357;49.990;7.370;2022-09-29T00:59:47;9.10;79.10
22379;DHT22;11357;49.990;7.370;2022-09-29T01:02:14;9.10;79.00
22379;DHT22;11357;49.990;7.370;2022-09-29T01:04:41;9.10;78.80
22379;DHT22;11357;49.990;7.370;2022-09-29T01:07:08;9.10;78.80
22379;DHT22;11357;49.990;7.370;2022-09-29T01:09:37;9.10;78.70
22379;DHT22;11357;49.990;7.370;2022-09-29T01:12:03;9.10;78.60
22379;DHT22;11357;49.990;7.370;2022-09-29T01:14:30;9.10;78.50
22379;DHT22;11357;49.990;7.370;2022-09-29T01:16:57;9.00;78.50
22379;DHT22;11357;49.990;7.370;2022-09-29T01:30:42;8.90;78.30
22379;DHT22;11357;49.990;7.370;2022-09-29T01:33:13;8.90;78.40
22379;DHT22;11357;49.990;7.370;2022-09-29T01:41:22;8.80;78.20
22379;DHT22;11357;49.990;7.370;2022-09-29T01:46:30;8.80;78.00
22379;DHT22;11357;49.990;7.370;2022-09-29T01:48:58;8.80;78.00
22379;DHT22;11357;49.990;7.370;2022-09-29T01:51:40;8.70;77.90
22379;DHT22;11357;49.990;7.370;2022-09-29T01:57:25;8.60;78.00
22379;DHT22;11357;49.990;7.370;2022-09-29T02:00:10;8.60;77.90
22379;DHT22;11357;49.990;7.370;2022-09-29T02:05:18;8.60;78.10
22379;DHT22;11357;49.990;7.370;2022-09-29T02:07:46;8.50;78.20
22379;DHT22;11357;49.990;7.370;2022-09-29T02:10:26;8.40;78.30
22379;DHT22;11357;49.990;7.370;2022-09-29T02:12:53;8.30;78.60
22379;DHT22;11357;49.990;7.370;2022-09-29T02:15:24;8.30;78.70
22379;DHT22;11357;49.990;7.370;2022-09-29T02:17:53;8.20;78.90
22379;DHT22;11357;49.990;7.370;2022-09-29T02:20:20;8.20;79.20
22379;DHT22;11357;49.990;7.370;2022-09-29T02:22:46;8.10;79.30
22379;DHT22;11357;49.990;7.370;2022-09-29T02:25:16;8.10;79.40
22379;DHT22;11357;49.990;7.370;2022-09-29T02:27:42;8.10;79.50
22379;DHT22;11357;49.990;7.370;2022-09-29T02:30:10;8.20;79.50
22379;DHT22;11357;49.990;7.370;2022-09-29T02:32:36;8.20;79.40
22379;DHT22;11357;49.990;7.370;2022-09-29T02:35:05;8.20;79.30
22379;DHT22;11357;49.990;7.370;2022-09-29T02:37:52;8.10;79.20
22379;DHT22;11357;49.990;7.370;2022-09-29T02:43:29;8.10;79.00
22379;DHT22;11357;49.990;7.370;2022-09-29T02:49:12;8.10;78.80
22379;DHT22;11357;49.990;7.370;2022-09-29T02:51:58;8.10;78.80
22379;DHT22;11357;49.990;7.370;2022-09-29T02:54:32;8.00;78.70
22379;DHT22;11357;49.990;7.370;2022-09-29T02:57:23;8.00;78.80
22379;DHT22;11357;49.990;7.370;2022-09-29T03:00:09;7.90;79.10
22379;DHT22;11357;49.990;7.370;2022-09-29T03:02:37;7.90;79.20
22379;DHT22;11357;49.990;7.370;2022-09-29T03:05:09;7.90;79.30
22379;DHT22;11357;49.990;7.370;2022-09-29T03:07:37;7.80;79.40
22379;DHT22;11357;49.990;7.370;2022-09-29T03:10:03;7.70;79.60
22379;DHT22;11357;49.990;7.370;2022-09-29T03:12:29;7.70;79.80
22379;DHT22;11357;49.990;7.370;2022-09-29T03:14:55;7.70;80.00
22379;DHT22;11357;49.990;7.370;2022-09-29T03:17:21;7.70;80.00
22379;DHT22;11357;49.990;7.370;2022-09-29T03:19:46;7.70;80.20
22379;DHT22;11357;49.990;7.370;2022-09-29T03:22:12;7.70;80.20
22379;DHT22;11357;49.990;7.370;2022-09-29T03:24:38;7.70;80.20
22379;DHT22;11357;49.990;7.370;2022-09-29T03:27:04;7.70;80.20
22379;DHT22;11357;49.990;7.370;2022-09-29T03:29:30;7.70;80.30
22379;DHT22;11357;49.990;7.370;2022-09-29T03:31:58;7.70;80.40
22379;DHT22;11357;49.990;7.370;2022-09-29T03:34:24;7.80;80.40
22379;DHT22;11357;49.990;7.370;2022-09-29T03:36:50;7.80;80.30
22379;DHT22;11357;49.990;7.370;2022-09-29T03:39:16;7.80;80.30
22379;DHT22;11357;49.990;7.370;2022-09-29T03:41:42;7.80;80.30
22379;DHT22;11357;49.990;7.370;2022-09-29T03:44:07;7.80;80.20
22379;DHT22;11357;49.990;7.370;2022-09-29T03:46:33;7.80;80.00
22379;DHT22;11357;49.990;7.370;2022-09-29T03:48:59;7.70;79.80
22379;DHT22;11357;49.990;7.370;2022-09-29T03:51:24;7.70;79.80
22379;DHT22;11357;49.990;7.370;2022-09-29T03:53:50;7.70;79.70
22379;DHT22;11357;49.990;7.370;2022-09-29T03:56:16;7.70;79.60
22379;DHT22;11357;49.990;7.370;2022-09-29T03:58:41;7.60;79.40
22379;DHT22;11357;49.990;7.370;2022-09-29T04:01:07;7.50;79.30
22379;DHT22;11357;49.990;7.370;2022-09-29T04:03:33;7.40;79.30
22379;DHT22;11357;49.990;7.370;2022-09-29T04:05:59;7.40;79.50
22379;DHT22;11357;49.990;7.370;2022-09-29T04:08:24;7.30;79.70
22379;DHT22;11357;49.990;7.370;2022-09-29T04:10:50;7.30;79.80
22379;DHT22;11357;49.990;7.370;2022-09-29T04:13:16;7.30;79.90
22379;DHT22;11357;49.990;7.370;2022-09-29T04:15:41;7.30;80.10
22379;DHT22;11357;49.990;7.370;2022-09-29T04:18:07;7.30;80.30
22379;DHT22;11357;49.990;7.370;2022-09-29T04:20:33;7.40;80.30
22379;DHT22;11357;49.990;7.370;2022-09-29T04:22:59;7.40;80.20
22379;DHT22;11357;49.990;7.370;2022-09-29T04:25:25;7.40;80.00
22379;DHT22;11357;49.990;7.370;2022-09-29T04:27:52;7.40;79.90
22379;DHT22;11357;49.990;7.370;2022-09-29T04:30:18;7.40;79.80
22379;DHT22;11357;49.990;7.370;2022-09-29T04:32:44;7.30;79.70
22379;DHT22;11357;49.990;7.370;2022-09-29T04:35:10;7.30;79.90
22379;DHT22;11357;49.990;7.370;2022-09-29T04:37:35;7.30;80.10
22379;DHT22;11357;49.990;7.370;2022-09-29T04:40:02;7.30;80.20
22379;DHT22;11357;49.990;7.370;2022-09-29T04:42:28;7.30;80.20
22379;DHT22;11357;49.990;7.370;2022-09-29T04:44:54;7.30;80.20
22379;DHT22;11357;49.990;7.370;2022-09-29T04:47:19;7.30;80.10
22379;DHT22;11357;49.990;7.370;2022-09-29T04:49:45;7.30;80.00
22379;DHT22;11357;49.990;7.370;2022-09-29T04:52:12;7.30;79.90
22379;DHT22;11357;49.990;7.370;2022-09-29T04:54:38;7.30;79.80
22379;DHT22;11357;49.990;7.370;2022-09-29T04:57:04;7.30;79.70
22379;DHT22;11357;49.990;7.370;2022-09-29T04:59:29;7.20;79.70
22379;DHT22;11357;49.990;7.370;2022-09-29T05:01:55;7.20;79.60
22379;DHT22;11357;49.990;7.370;2022-09-29T05:04:21;7.20;79.50
22379;DHT22;11357;49.990;7.370;2022-09-29T05:06:46;7.20;79.50
22379;DHT22;11357;49.990;7.370;2022-09-29T05:09:12;7.20;79.40
22379;DHT22;11357;49.990;7.370;2022-09-29T05:11:38;7.20;79.40
22379;DHT22;11357;49.990;7.370;2022-09-29T05:14:04;7.20;79.30
22379;DHT22;11357;49.990;7.370;2022-09-29T05:16:30;7.20;79.30
22379;DHT22;11357;49.990;7.370;2022-09-29T05:18:56;7.10;79.20
22379;DHT22;11357;49.990;7.370;2022-09-29T05:21:22;7.10;79.10
22379;DHT22;11357;49.990;7.370;2022-09-29T05:23:47;7.00;79.00
22379;DHT22;11357;49.990;7.370;2022-09-29T05:26:14;6.90;79.00
22379;DHT22;11357;49.990;7.370;2022-09-29T05:28:45;6.80;79.00
22379;DHT22;11357;49.990;7.370;2022-09-29T05:31:11;6.70;79.30
22379;DHT22;11357;49.990;7.370;2022-09-29T05:33:37;6.70;79.40
22379;DHT22;11357;49.990;7.370;2022-09-29T05:36:04;6.60;79.50
22379;DHT22;11357;49.990;7.370;2022-09-29T05:38:35;6.60;79.70
22379;DHT22;11357;49.990;7.370;2022-09-29T05:41:08;6.60;79.70
22379;DHT22;11357;49.990;7.370;2022-09-29T05:43:35;6.60;79.90
22379;DHT22;11357;49.990;7.370;2022-09-29T05:46:02;6.70;79.90
22379;DHT22;11357;49.990;7.370;2022-09-29T05:48:28;6.70;80.00
22379;DHT22;11357;49.990;7.370;2022-09-29T05:50:56;6.70;80.20
22379;DHT22;11357;49.990;7.370;2022-09-29T05:53:22;6.80;80.40
22379;DHT22;11357;49.990;7.370;2022-09-29T05:55:47;6.80;80.50
22379;DHT22;11357;49.990;7.370;2022-09-29T05:58:13;6.90;80.70
22379;DHT22;11357;49.990;7.370;2022-09-29T06:00:39;7.00;80.80
22379;DHT22;11357;49.990;7.370;2022-09-29T06:03:04;7.10;80.80
22379;DHT22;11357;49.990;7.370;2022-09-29T06:05:30;7.20;80.80
22379;DHT22;11357;49.990;7.370;2022-09-29T06:07:56;7.20;80.60
22379;DHT22;11357;49.990;7.370;2022-09-29T06:10:23;7.30;80.50
22379;DHT22;11357;49.990;7.370;2022-09-29T06:12:49;7.30;80.50
22379;DHT22;11357;49.990;7.370;2022-09-29T06:15:14;7.30;80.40
22379;DHT22;11357;49.990;7.370;2022-09-29T06:17:40;7.40;80.40
22379;DHT22;11357;49.990;7.370;2022-09-29T06:20:06;7.30;80.30
22379;DHT22;11357;49.990;7.370;2022-09-29T06:22:32;7.30;80.10
22379;DHT22;11357;49.990;7.370;2022-09-29T06:24:58;7.30;80.10
22379;DHT22;11357;49.990;7.370;2022-09-29T06:27:23;7.40;80.10
22379;DHT22;11357;49.990;7.370;2022-09-29T06:29:49;7.40;80.10
22379;DHT22;11357;49.990;7.370;2022-09-29T06:32:15;7.40;80.10
22379;DHT22;11357;49.990;7.370;2022-09-29T06:34:40;7.50;80.10
22379;DHT22;11357;49.990;7.370;2022-09-29T06:37:25;7.50;80.10
22379;DHT22;11357;49.990;7.370;2022-09-29T06:40:02;7.60;80.20
22379;DHT22;11357;49.990;7.370;2022-09-29T06:42:28;7.60;80.20
22379;DHT22;11357;49.990;7.370;2022-09-29T06:44:54;7.70;80.30
22379;DHT22;11357;49.990;7.370;2022-09-29T06:47:19;7.90;80.30
22379;DHT22;11357;49.990;7.370;2022-09-29T06:49:45;8.10;80.30
22379;DHT22;11357;49.990;7.370;2022-09-29T06:52:11;8.20;80.30
22379;DHT22;11357;49.990;7.370;2022-09-29T06:54:37;8.30;80.30
22379;DHT22;11357;49.990;7.370;2022-09-29T06:57:02;8.40;80.40
22379;DHT22;11357;49.990;7.370;2022-09-29T06:59:28;8.50;80.50
22379;DHT22;11357;49.990;7.370;2022-09-29T07:01:54;8.70;80.70
22379;DHT22;11357;49.990;7.370;2022-09-29T07:04:20;9.00;80.70
22379;DHT22;11357;49.990;7.370;2022-09-29T07:06:46;9.20;80.60
22379;DHT22;11357;49.990;7.370;2022-09-29T07:09:13;9.40;80.30
22379;DHT22;11357;49.990;7.370;2022-09-29T07:11:44;9.50;80.10
22379;DHT22;11357;49.990;7.370;2022-09-29T07:14:29;9.70;79.90
22379;DHT22;11357;49.990;7.370;2022-09-29T07:16:55;9.80;79.70
22379;DHT22;11357;49.990;7.370;2022-09-29T07:19:23;10.00;79.40
22379;DHT22;11357;49.990;7.370;2022-09-29T07:21:49;10.20;79.20
22379;DHT22;11357;49.990;7.370;2022-09-29T07:24:18;10.30;78.80
22379;DHT22;11357;49.990;7.370;2022-09-29T07:26:45;10.40;78.50
22379;DHT22;11357;49.990;7.370;2022-09-29T07:29:11;10.50;78.30
22379;DHT22;11357;49.990;7.370;2022-09-29T07:31:46;10.60;78.20
22379;DHT22;11357;49.990;7.370;2022-09-29T07:34:12;10.70;78.10
22379;DHT22;11357;49.990;7.370;2022-09-29T07:36:38;10.80;77.90
22379;DHT22;11357;49.990;7.370;2022-09-29T07:39:04;10.90;78.00
22379;DHT22;11357;49.990;7.370;2022-09-29T07:41:31;10.90;78.00
22379;DHT22;11357;49.990;7.370;2022-09-29T07:43:57;11.00;78.10
22379;DHT22;11357;49.990;7.370;2022-09-29T07:46:23;11.10;78.20
22379;DHT22;11357;49.990;7.370;2022-09-29T07:48:52;11.30;78.20
22379;DHT22;11357;49.990;7.370;2022-09-29T07:51:19;11.40;78.30
22379;DHT22;11357;49.990;7.370;2022-09-29T07:53:45;11.60;78.20
22379;DHT22;11357;49.990;7.370;2022-09-29T07:56:19;11.80;78.10
22379;DHT22;11357;49.990;7.370;2022-09-29T07:58:48;12.00;78.00
22379;DHT22;11357;49.990;7.370;2022-09-29T08:01:18;12.30;77.90
22379;DHT22;11357;49.990;7.370;2022-09-29T08:03:51;12.50;77.80
22379;DHT22;11357;49.990;7.370;2022-09-29T08:06:17;12.80;77.30
22379;DHT22;11357;49.990;7.370;2022-09-29T08:08:44;13.10;76.40
22379;DHT22;11357;49.990;7.370;2022-09-29T08:11:12;13.30;76.00
22379;DHT22;11357;49.990;7.370;2022-09-29T08:13:38;13.40;75.70
22379;DHT22;11357;49.990;7.370;2022-09-29T08:16:06;13.50;75.70
22379;DHT22;11357;49.990;7.370;2022-09-29T08:18:33;13.70;75.70
22379;DHT22;11357;49.990;7.370;2022-09-29T08:21:00;14.00;75.50
22379;DHT22;11357;49.990;7.370;2022-09-29T08:23:26;14.30;75.20
22379;DHT22;11357;49.990;7.370;2022-09-29T08:26:06;14.60;74.80
22379;DHT22;11357;49.990;7.370;2022-09-29T08:28:34;15.10;74.50
22379;DHT22;11357;49.990;7.370;2022-09-29T08:31:11;15.70;73.60
22379;DHT22;11357;49.990;7.370;2022-09-29T08:33:38;16.10;72.70
22379;DHT22;11357;49.990;7.370;2022-09-29T08:36:05;16.50;72.30
22379;DHT22;11357;49.990;7.370;2022-09-29T08:38:42;16.80;72.10
22379;DHT22;11357;49.990;7.370;2022-09-29T08:41:35;17.10;71.50
22379;DHT22;11357;49.990;7.370;2022-09-29T08:46:46;17.50;70.80
22379;DHT22;11357;49.990;7.370;2022-09-29T08:49:59;17.60;70.30
22379;DHT22;11357;49.990;7.370;2022-09-29T08:52:11;17.90;70.00
22379;DHT22;11357;49.990;7.370;2022-09-29T08:54:41;18.30;69.20
22379;DHT22;11357;49.990;7.370;2022-09-29T08:57:13;18.50;68.60
22379;DHT22;11357;49.990;7.370;2022-09-29T08:59:53;18.70;67.60
22379;DHT22;11357;49.990;7.370;2022-09-29T09:11:00;19.70;64.20
22379;DHT22;11357;49.990;7.370;2022-09-29T09:19:35;20.10;61.90
22379;DHT22;11357;49.990;7.370;2022-09-29T09:22:23;20.00;61.20
22379;DHT22;11357;49.990;7.370;2022-09-29T09:27:25;19.90;61.10
22379;DHT22;11357;49.990;7.370;2022-09-29T09:30:00;19.80;60.60
22379;DHT22;11357;49.990;7.370;2022-09-29T09:32:34;19.80;60.60
22379;DHT22;11357;49.990;7.370;2022-09-29T09:35:24;19.80;60.00
22379;DHT22;11357;49.990;7.370;2022-09-29T09:37:53;19.70;59.50
22379;DHT22;11357;49.990;7.370;2022-09-29T09:40:25;19.80;59.60
22379;DHT22;11357;49.990;7.370;2022-09-29T09:42:57;19.70;59.50
22379;DHT22;11357;49.990;7.370;2022-09-29T09:45:29;19.60;59.30
22379;DHT22;11357;49.990;7.370;2022-09-29T09:48:13;19.30;59.20
22379;DHT22;11357;49.990;7.370;2022-09-29T09:50:41;19.10;59.70
22379;DHT22;11357;49.990;7.370;2022-09-29T09:53:14;18.90;59.60
22379;DHT22;11357;49.990;7.370;2022-09-29T09:55:40;18.80;59.90
22379;DHT22;11357;49.990;7.370;2022-09-29T09:58:31;18.80;60.00
22379;DHT22;11357;49.990;7.370;2022-09-29T10:01:01;18.90;60.00
22379;DHT22;11357;49.990;7.370;2022-09-29T10:03:28;19.30;59.60
22379;DHT22;11357;49.990;7.370;2022-09-29T10:05:55;19.50;59.20
22379;DHT22;11357;49.990;7.370;2022-09-29T10:08:26;19.70;58.40
22379;DHT22;11357;49.990;7.370;2022-09-29T10:10:54;19.80;58.10
22379;DHT22;11357;49.990;7.370;2022-09-29T10:13:24;19.90;58.00
22379;DHT22;11357;49.990;7.370;2022-09-29T10:18:43;20.20;57.20
22379;DHT22;11357;49.990;7.370;2022-09-29T10:23:55;20.50;56.40
22379;DHT22;11357;49.990;7.370;2022-09-29T10:26:26;20.50;56.10
22379;DHT22;11357;49.990;7.370;2022-09-29T10:33:54;20.40;56.40
22379;DHT22;11357;49.990;7.370;2022-09-29T10:36:21;20.30;56.40
22379;DHT22;11357;49.990;7.370;2022-09-29T10:38:50;20.20;56.30
22379;DHT22;11357;49.990;7.370;2022-09-29T10:41:16;20.10;56.50
22379;DHT22;11357;49.990;7.370;2022-09-29T10:43:45;20.00;56.50
22379;DHT22;11357;49.990;7.370;2022-09-29T10:49:20;19.70;57.00
22379;DHT22;11357;49.990;7.370;2022-09-29T10:54:23;19.60;56.80
22379;DHT22;11357;49.990;7.370;2022-09-29T10:56:53;19.60;56.80
22379;DHT22;11357;49.990;7.370;2022-09-29T10:59:21;19.70;56.90
22379;DHT22;11357;49.990;7.370;2022-09-29T11:01:50;19.90;56.90
22379;DHT22;11357;49.990;7.370;2022-09-29T11:04:38;20.00;56.60
22379;DHT22;11357;49.990;7.370;2022-09-29T11:07:10;20.00;55.80
22379;DHT22;11357;49.990;7.370;2022-09-29T11:09:41;20.00;55.60
22379;DHT22;11357;49.990;7.370;2022-09-29T11:12:31;20.40;55.20
22379;DHT22;11357;49.990;7.370;2022-09-29T11:14:59;20.70;54.80
22379;DHT22;11357;49.990;7.370;2022-09-29T11:17:30;20.90;53.80
22379;DHT22;11357;49.990;7.370;2022-09-29T11:20:03;20.90;53.70
22379;DHT22;11357;49.990;7.370;2022-09-29T11:28:24;20.80;52.50
22379;DHT22;11357;49.990;7.370;2022-09-29T11:40:00;20.10;53.10
22379;DHT22;11357;49.990;7.370;2022-09-29T11:45:40;20.00;53.50
22379;DHT22;11357;49.990;7.370;2022-09-29T11:48:32;20.00;53.30
22379;DHT22;11357;49.990;7.370;2022-09-29T11:56:38;19.70;54.00
22379;DHT22;11357;49.990;7.370;2022-09-29T11:59:39;19.80;53.90
22379;DHT22;11357;49.990;7.370;2022-09-29T12:17:55;19.30;55.30
22379;DHT22;11357;49.990;7.370;2022-09-29T12:20:36;19.40;55.70
22379;DHT22;11357;49.990;7.370;2022-09-29T12:23:09;19.40;55.80
22379;DHT22;11357;49.990;7.370;2022-09-29T12:25:39;19.50;55.50
22379;DHT22;11357;49.990;7.370;2022-09-29T12:28:14;19.40;55.60
22379;DHT22;11357;49.990;7.370;2022-09-29T12:30:55;19.50;55.80
22379;DHT22;11357;49.990;7.370;2022-09-29T12:33:35;19.50;55.90
22379;DHT22;11357;49.990;7.370;2022-09-29T12:39:22;19.60;56.10
22379;DHT22;11357;49.990;7.370;2022-09-29T12:41:53;19.60;55.80
22379;DHT22;11357;49.990;7.370;2022-09-29T12:44:34;19.70;55.60
22379;DHT22;11357;49.990;7.370;2022-09-29T12:49:48;19.80;55.40
22379;DHT22;11357;49.990;7.370;2022-09-29T12:52:25;19.80;54.70
22379;DHT22;11357;49.990;7.370;2022-09-29T12:54:57;19.70;54.60
22379;DHT22;11357;49.990;7.370;2022-09-29T12:57:46;19.70;54.70
22379;DHT22;11357;49.990;7.370;2022-09-29T13:00:15;19.70;54.70
22379;DHT22;11357;49.990;7.370;2022-09-29T13:05:50;19.70;54.40
22379;DHT22;11357;49.990;7.370;2022-09-29T13:14:37;19.60;55.00
22379;DHT22;11357;49.990;7.370;2022-09-29T13:27:46;19.50;54.60
22379;DHT22;11357;49.990;7.370;2022-09-29T13:30:17;19.50;54.60
22379;DHT22;11357;49.990;7.370;2022-09-29T13:33:13;19.60;54.50
22379;DHT22;11357;49.990;7.370;2022-09-29T13:35:45;19.50;54.40
22379;DHT22;11357;49.990;7.370;2022-09-29T13:38:33;19.50;54.40
22379;DHT22;11357;49.990;7.370;2022-09-29T13:41:14;19.50;54.50
22379;DHT22;11357;49.990;7.370;2022-09-29T13:44:03;19.50;54.70
22379;DHT22;11357;49.990;7.370;2022-09-29T13:51:48;19.40;54.20
22379;DHT22;11357;49.990;7.370;2022-09-29T13:59:24;19.20;54.30
22379;DHT22;11357;49.990;7.370;2022-09-29T14:01:50;19.20;54.20
22379;DHT22;11357;49.990;7.370;2022-09-29T14:04:44;19.20;54.20
22379;DHT22;11357;49.990;7.370;2022-09-29T14:08:13;19.20;54.30
22379;DHT22;11357;49.990;7.370;2022-09-29T14:13:02;19.30;53.90
22379;DHT22;11357;49.990;7.370;2022-09-29T14:15:35;19.30;53.60
22379;DHT22;11357;49.990;7.370;2022-09-29T14:18:10;19.40;53.30
22379;DHT22;11357;49.990;7.370;2022-09-29T14:20:59;19.50;52.90
22379;DHT22;11357;49.990;7.370;2022-09-29T14:24:00;19.50;53.50
22379;DHT22;11357;49.990;7.370;2022-09-29T14:26:47;19.50;52.60
22379;DHT22;11357;49.990;7.370;2022-09-29T14:29:33;19.50;52.30
22379;DHT22;11357;49.990;7.370;2022-09-29T14:32:00;19.50;52.00
22379;DHT22;11357;49.990;7.370;2022-09-29T14:34:29;19.50;51.70
22379;DHT22;11357;49.990;7.370;2022-09-29T14:36:57;19.50;51.20
22379;DHT22;11357;49.990;7.370;2022-09-29T14:39:24;19.50;51.10
22379;DHT22;11357;49.990;7.370;2022-09-29T14:41:50;19.50;51.50
22379;DHT22;11357;49.990;7.370;2022-09-29T14:47:45;19.60;51.40
22379;DHT22;11357;49.990;7.370;2022-09-29T14:50:51;19.60;51.20
22379;DHT22;11357;49.990;7.370;2022-09-29T14:54:02;19.60;51.40
22379;DHT22;11357;49.990;7.370;2022-09-29T15:04:41;19.60;50.80
22379;DHT22;11357;49.990;7.370;2022-09-29T15:07:12;19.60;50.50
22379;DHT22;11357;49.990;7.370;2022-09-29T15:09:38;19.60;50.40
22379;DHT22;11357;49.990;7.370;2022-09-29T15:12:19;19.60;50.20
22379;DHT22;11357;49.990;7.370;2022-09-29T15:14:45;19.70;49.90
22379;DHT22;11357;49.990;7.370;2022-09-29T15:25:44;19.60;49.20
22379;DHT22;11357;49.990;7.370;2022-09-29T15:28:20;19.50;49.10
22379;DHT22;11357;49.990;7.370;2022-09-29T15:30:50;19.40;49.20
22379;DHT22;11357;49.990;7.370;2022-09-29T15:33:22;19.30;49.30
22379;DHT22;11357;49.990;7.370;2022-09-29T15:35:52;19.20;49.40
22379;DHT22;11357;49.990;7.370;2022-09-29T15:40:56;18.90;50.00
22379;DHT22;11357;49.990;7.370;2022-09-29T15:43:29;18.70;50.10
22379;DHT22;11357;49.990;7.370;2022-09-29T15:49:09;18.60;50.70
22379;DHT22;11357;49.990;7.370;2022-09-29T15:51:35;18.50;50.80
22379;DHT22;11357;49.990;7.370;2022-09-29T15:54:02;18.50;51.00
22379;DHT22;11357;49.990;7.370;2022-09-29T15:56:38;18.50;51.20
22379;DHT22;11357;49.990;7.370;2022-09-29T15:59:43;18.40;51.10
22379;DHT22;11357;49.990;7.370;2022-09-29T16:02:35;18.30;51.50
22379;DHT22;11357;49.990;7.370;2022-09-29T16:05:14;18.20;51.70
22379;DHT22;11357;49.990;7.370;2022-09-29T16:07:57;18.10;52.30
22379;DHT22;11357;49.990;7.370;2022-09-29T16:13:38;17.90;52.70
22379;DHT22;11357;49.990;7.370;2022-09-29T16:16:08;17.90;52.80
22379;DHT22;11357;49.990;7.370;2022-09-29T16:18:48;17.90;52.80
22379;DHT22;11357;49.990;7.370;2022-09-29T16:21:22;17.80;52.80
22379;DHT22;11357;49.990;7.370;2022-09-29T16:26:19;17.50;53.40
22379;DHT22;11357;49.990;7.370;2022-09-29T16:29:04;17.40;53.70
22379;DHT22;11357;49.990;7.370;2022-09-29T16:31:32;17.30;54.10
22379;DHT22;11357;49.990;7.370;2022-09-29T16:33:59;17.20;54.40
22379;DHT22;11357;49.990;7.370;2022-09-29T16:38:53;17.00;55.10
22379;DHT22;11357;49.990;7.370;2022-09-29T16:44:41;16.80;56.10
22379;DHT22;11357;49.990;7.370;2022-09-29T16:47:26;16.70;56.50
22379;DHT22;11357;49.990;7.370;2022-09-29T16:49:55;16.60;56.70
22379;DHT22;11357;49.990;7.370;2022-09-29T16:52:27;16.40;57.00
22379;DHT22;11357;49.990;7.370;2022-09-29T16:55:26;16.20;57.40
22379;DHT22;11357;49.990;7.370;2022-09-29T16:58:03;16.00;58.00
22379;DHT22;11357;49.990;7.370;2022-09-29T17:00:29;16.00;58.40
22379;DHT22;11357;49.990;7.370;2022-09-29T17:02:55;15.90;58.70
22379;DHT22;11357;49.990;7.370;2022-09-29T17:05:27;15.70;59.00
22379;DHT22;11357;49.990;7.370;2022-09-29T17:08:04;15.60;59.40
22379;DHT22;11357;49.990;7.370;2022-09-29T17:10:32;15.50;59.80
22379;DHT22;11357;49.990;7.370;2022-09-29T17:12:58;15.40;60.00
22379;DHT22;11357;49.990;7.370;2022-09-29T17:15:25;15.30;60.40
22379;DHT22;11357;49.990;7.370;2022-09-29T17:17:51;15.20;60.70
22379;DHT22;11357;49.990;7.370;2022-09-29T17:20:20;15.20;60.90
22379;DHT22;11357;49.990;7.370;2022-09-29T17:22:53;15.10;61.20
22379;DHT22;11357;49.990;7.370;2022-09-29T17:25:20;15.00;61.40
22379;DHT22;11357;49.990;7.370;2022-09-29T17:27:46;14.80;61.70
22379;DHT22;11357;49.990;7.370;2022-09-29T17:30:30;14.80;62.80
22379;DHT22;11357;49.990;7.370;2022-09-29T17:32:57;14.70;62.30
22379;DHT22;11357;49.990;7.370;2022-09-29T17:35:44;14.60;62.50
22379;DHT22;11357;49.990;7.370;2022-09-29T17:38:14;14.50;62.90
22379;DHT22;11357;49.990;7.370;2022-09-29T17:40:51;14.50;63.00
22379;DHT22;11357;49.990;7.370;2022-09-29T17:43:18;14.40;63.40
22379;DHT22;11357;49.990;7.370;2022-09-29T17:45:45;14.40;63.50
22379;DHT22;11357;49.990;7.370;2022-09-29T17:48:11;14.30;63.80
22379;DHT22;11357;49.990;7.370;2022-09-29T17:50:44;14.20;64.10
22379;DHT22;11357;49.990;7.370;2022-09-29T17:53:10;14.20;64.40
22379;DHT22;11357;49.990;7.370;2022-09-29T17:55:40;14.20;64.40
22379;DHT22;11357;49.990;7.370;2022-09-29T17:58:06;14.10;64.50
22379;DHT22;11357;49.990;7.370;2022-09-29T18:00:35;14.10;64.60
22379;DHT22;11357;49.990;7.370;2022-09-29T18:03:04;14.00;64.80
22379;DHT22;11357;49.990;7.370;2022-09-29T18:05:30;14.00;64.90
22379;DHT22;11357;49.990;7.370;2022-09-29T18:07:58;13.90;65.00
22379;DHT22;11357;49.990;7.370;2022-09-29T18:12:49;13.70;65.30
22379;DHT22;11357;49.990;7.370;2022-09-29T18:15:15;13.60;65.50
22379;DHT22;11357;49.990;7.370;2022-09-29T18:17:42;13.50;65.50
22379;DHT22;11357;49.990;7.370;2022-09-29T18:20:17;13.40;65.70
22379;DHT22;11357;49.990;7.370;2022-09-29T18:22:43;13.40;65.90
22379;DHT22;11357;49.990;7.370;2022-09-29T18:25:11;13.30;66.00
22379;DHT22;11357;49.990;7.370;2022-09-29T18:27:37;13.20;66.30
22379;DHT22;11357;49.990;7.370;2022-09-29T18:30:06;13.10;66.60
22379;DHT22;11357;49.990;7.370;2022-09-29T18:32:36;13.00;66.80
22379;DHT22;11357;49.990;7.370;2022-09-29T18:35:01;12.90;66.70
22379;DHT22;11357;49.990;7.370;2022-09-29T18:37:27;12.70;66.90
22379;DHT22;11357;49.990;7.370;2022-09-29T18:39:52;12.50;67.20
22379;DHT22;11357;49.990;7.370;2022-09-29T18:42:18;12.30;67.80
22379;DHT22;11357;49.990;7.370;2022-09-29T18:44:44;12.20;68.40
22379;DHT22;11357;49.990;7.370;2022-09-29T18:47:10;12.20;68.70
22379;DHT22;11357;49.990;7.370;2022-09-29T18:49:37;12.20;68.70
22379;DHT22;11357;49.990;7.370;2022-09-29T18:52:02;12.20;68.80
22379;DHT22;11357;49.990;7.370;2022-09-29T18:54:28;12.20;68.80
22379;DHT22;11357;49.990;7.370;2022-09-29T18:56:54;12.20;68.80
22379;DHT22;11357;49.990;7.370;2022-09-29T18:59:19;12.30;68.90
22379;DHT22;11357;49.990;7.370;2022-09-29T19:01:45;12.30;68.90
22379;DHT22;11357;49.990;7.370;2022-09-29T19:04:11;12.30;68.90
22379;DHT22;11357;49.990;7.370;2022-09-29T19:06:36;12.20;68.90
22379;DHT22;11357;49.990;7.370;2022-09-29T19:09:02;12.10;69.20